sensor_id;sensor_type;location;lat;lon;timestamp;P1;durP1;ratioP1;P2;durP2;ratioP2
64075;SDS011;50327;51.328;12.324;2023-03-29T00:01:44;16.63;;;3.13;;
64075;SDS011;50327;51.328;12.324;2023-03-29T00:04:09;8.30;;;3.30;;
64075;SDS011;50327;51.328;12.324;2023-03-29T00:06:37;11.70;;;3.30;;
64075;SDS011;50327;51.328;12.324;2023-03-29T00:09:02;15.35;;;3.30;;
64075;SDS011;50327;51.328;12.324;2023-03-29T00:11:29;11.95;;;3.17;;
64075;SDS011;50327;51.328;12.324;2023-03-29T00:13:55;14.68;;;3.92;;
64075;SDS011;50327;51.328;12.324;2023-03-29T00:16:20;9.00;;;3.42;;
64075;SDS011;50327;51.328;12.324;2023-03-29T00:18:45;10.60;;;2.92;;
64075;SDS011;50327;51.328;12.324;2023-03-29T00:21:11;8.50;;;3.03;;
64075;SDS011;50327;51.328;12.324;2023-03-29T00:23:36;11.88;;;3.40;;
64075;SDS011;50327;51.328;12.324;2023-03-29T00:26:01;11.07;;;3.10;;
64075;SDS011;50327;51.328;12.324;2023-03-29T00:28:26;13.27;;;3.30;;
64075;SDS011;50327;51.328;12.324;2023-03-29T00:30:52;13.70;;;3.78;;
64075;SDS011;50327;51.328;12.324;2023-03-29T00:33:17;11.98;;;3.40;;
64075;SDS011;50327;51.328;12.324;2023-03-29T00:35:44;7.05;;;3.05;;
64075;SDS011;50327;51.328;12.324;2023-03-29T00:38:10;13.23;;;3.63;;
64075;SDS011;50327;51.328;12.324;2023-03-29T00:40:40;7.68;;;3.15;;
64075;SDS011;50327;51.328;12.324;2023-03-29T00:43:08;26.10;;;4.38;;
64075;SDS011;50327;51.328;12.324;2023-03-29T00:45:33;12.93;;;3.20;;
64075;SDS011;50327;51.328;12.324;2023-03-29T00:48:00;14.15;;;4.20;;
64075;SDS011;50327;51.328;12.324;2023-03-29T00:50:27;8.60;;;3.15;;
64075;SDS011;50327;51.328;12.324;2023-03-29T00:52:58;10.15;;;2.95;;
64075;SDS011;50327;51.328;12.324;2023-03-29T00:55:26;16.80;;;3.83;;
64075;SDS011;50327;51.328;12.324;2023-03-29T00:57:53;9.38;;;3.20;;
64075;SDS011;50327;51.328;12.324;2023-03-29T01:00:21;10.73;;;3.67;;
64075;SDS011;50327;51.328;12.324;2023-03-29T01:02:50;15.20;;;4.60;;
64075;SDS011;50327;51.328;12.324;2023-03-29T01:05:19;12.55;;;3.67;;
64075;SDS011;50327;51.328;12.324;2023-03-29T01:10:17;15.75;;;4.18;;
64075;SDS011;50327;51.328;12.324;2023-03-29T01:12:47;13.43;;;3.85;;
64075;SDS011;50327;51.328;12.324;2023-03-29T01:15:15;14.95;;;3.67;;
64075;SDS011;50327;51.328;12.324;2023-03-29T01:17:41;17.13;;;3.65;;
64075;SDS011;50327;51.328;12.324;2023-03-29T01:20:17;13.25;;;3.75;;
64075;SDS011;50327;51.328;12.324;2023-03-29T01:27:48;10.52;;;2.97;;
64075;SDS011;50327;51.328;12.324;2023-03-29T01:30:16;17.20;;;3.50;;
64075;SDS011;50327;51.328;12.324;2023-03-29T01:32:49;10.02;;;3.13;;
64075;SDS011;50327;51.328;12.324;2023-03-29T01:35:20;10.68;;;2.90;;
64075;SDS011;50327;51.328;12.324;2023-03-29T01:37:49;10.40;;;3.17;;
64075;SDS011;50327;51.328;12.324;2023-03-29T01:40:14;18.98;;;2.80;;
64075;SDS011;50327;51.328;12.324;2023-03-29T01:48:48;10.02;;;3.55;;
64075;SDS011;50327;51.328;12.324;2023-03-29T01:53:18;9.70;;;2.63;;
64075;SDS011;50327;51.328;12.324;2023-03-29T01:55:48;9.10;;;3.10;;
64075;SDS011;50327;51.328;12.324;2023-03-29T01:58:14;13.07;;;3.30;;
64075;SDS011;50327;51.328;12.324;2023-03-29T02:00:41;14.75;;;2.80;;
64075;SDS011;50327;51.328;12.324;2023-03-29T02:03:08;14.05;;;2.88;;
64075;SDS011;50327;51.328;12.324;2023-03-29T02:05:34;8.05;;;2.78;;
64075;SDS011;50327;51.328;12.324;2023-03-29T02:08:00;12.68;;;2.20;;
64075;SDS011;50327;51.328;12.324;2023-03-29T02:10:26;7.45;;;2.67;;
64075;SDS011;50327;51.328;12.324;2023-03-29T02:12:51;10.60;;;2.58;;
64075;SDS011;50327;51.328;12.324;2023-03-29T02:15:18;10.57;;;2.53;;
64075;SDS011;50327;51.328;12.324;2023-03-29T02:17:44;7.35;;;2.20;;
64075;SDS011;50327;51.328;12.324;2023-03-29T02:20:18;13.38;;;2.88;;
64075;SDS011;50327;51.328;12.324;2023-03-29T02:22:48;16.20;;;3.00;;
64075;SDS011;50327;51.328;12.324;2023-03-29T02:25:16;9.40;;;2.70;;
64075;SDS011;50327;51.328;12.324;2023-03-29T02:27:42;5.72;;;2.30;;
64075;SDS011;50327;51.328;12.324;2023-03-29T02:30:08;9.45;;;2.28;;
64075;SDS011;50327;51.328;12.324;2023-03-29T02:35:05;5.85;;;1.85;;
64075;SDS011;50327;51.328;12.324;2023-03-29T02:37:31;12.60;;;2.80;;
64075;SDS011;50327;51.328;12.324;2023-03-29T02:39:58;13.05;;;2.13;;
64075;SDS011;50327;51.328;12.324;2023-03-29T02:42:24;8.48;;;1.90;;
64075;SDS011;50327;51.328;12.324;2023-03-29T02:44:51;10.07;;;2.20;;
64075;SDS011;50327;51.328;12.324;2023-03-29T02:47:19;13.90;;;2.45;;
64075;SDS011;50327;51.328;12.324;2023-03-29T02:49:46;8.43;;;2.33;;
64075;SDS011;50327;51.328;12.324;2023-03-29T02:52:13;17.30;;;2.42;;
64075;SDS011;50327;51.328;12.324;2023-03-29T02:54:39;10.95;;;1.83;;
64075;SDS011;50327;51.328;12.324;2023-03-29T02:57:07;5.50;;;2.10;;
64075;SDS011;50327;51.328;12.324;2023-03-29T02:59:32;15.32;;;2.67;;
64075;SDS011;50327;51.328;12.324;2023-03-29T03:01:58;11.23;;;2.50;;
64075;SDS011;50327;51.328;12.324;2023-03-29T03:04:23;6.40;;;1.92;;
64075;SDS011;50327;51.328;12.324;2023-03-29T03:06:49;8.57;;;2.50;;
64075;SDS011;50327;51.328;12.324;2023-03-29T03:09:14;12.98;;;2.25;;
64075;SDS011;50327;51.328;12.324;2023-03-29T03:11:40;4.13;;;1.70;;
64075;SDS011;50327;51.328;12.324;2023-03-29T03:14:05;10.90;;;2.90;;
64075;SDS011;50327;51.328;12.324;2023-03-29T03:16:31;8.32;;;2.60;;
64075;SDS011;50327;51.328;12.324;2023-03-29T03:18:56;11.57;;;2.65;;
64075;SDS011;50327;51.328;12.324;2023-03-29T03:21:22;21.02;;;2.80;;
64075;SDS011;50327;51.328;12.324;2023-03-29T03:23:48;9.45;;;2.88;;
64075;SDS011;50327;51.328;12.324;2023-03-29T03:26:14;7.38;;;2.85;;
64075;SDS011;50327;51.328;12.324;2023-03-29T03:28:39;13.57;;;3.10;;
64075;SDS011;50327;51.328;12.324;2023-03-29T03:31:05;8.18;;;2.20;;
64075;SDS011;50327;51.328;12.324;2023-03-29T03:33:30;6.22;;;2.95;;
64075;SDS011;50327;51.328;12.324;2023-03-29T03:35:55;8.90;;;2.72;;
64075;SDS011;50327;51.328;12.324;2023-03-29T03:38:21;12.73;;;3.08;;
64075;SDS011;50327;51.328;12.324;2023-03-29T03:40:51;8.35;;;2.75;;
64075;SDS011;50327;51.328;12.324;2023-03-29T03:43:17;11.88;;;2.85;;
64075;SDS011;50327;51.328;12.324;2023-03-29T03:45:42;8.75;;;2.53;;
64075;SDS011;50327;51.328;12.324;2023-03-29T03:48:07;5.97;;;2.53;;
64075;SDS011;50327;51.328;12.324;2023-03-29T03:50:33;6.68;;;2.53;;
64075;SDS011;50327;51.328;12.324;2023-03-29T03:52:58;10.43;;;2.15;;
64075;SDS011;50327;51.328;12.324;2023-03-29T03:55:24;7.78;;;2.10;;
64075;SDS011;50327;51.328;12.324;2023-03-29T03:57:49;5.88;;;2.25;;
64075;SDS011;50327;51.328;12.324;2023-03-29T04:00:15;7.93;;;1.88;;
64075;SDS011;50327;51.328;12.324;2023-03-29T04:02:44;14.27;;;3.00;;
64075;SDS011;50327;51.328;12.324;2023-03-29T04:05:10;7.65;;;2.33;;
64075;SDS011;50327;51.328;12.324;2023-03-29T04:07:36;3.92;;;1.77;;
64075;SDS011;50327;51.328;12.324;2023-03-29T04:10:01;7.90;;;2.15;;
64075;SDS011;50327;51.328;12.324;2023-03-29T04:12:26;6.13;;;1.95;;
64075;SDS011;50327;51.328;12.324;2023-03-29T04:14:52;7.07;;;1.70;;
64075;SDS011;50327;51.328;12.324;2023-03-29T04:17:17;4.18;;;2.05;;
64075;SDS011;50327;51.328;12.324;2023-03-29T04:19:42;6.07;;;2.05;;
64075;SDS011;50327;51.328;12.324;2023-03-29T04:22:07;7.32;;;2.13;;
64075;SDS011;50327;51.328;12.324;2023-03-29T04:24:33;4.55;;;1.92;;
64075;SDS011;50327;51.328;12.324;2023-03-29T04:26:58;5.45;;;1.92;;
64075;SDS011;50327;51.328;12.324;2023-03-29T04:29:24;8.38;;;1.98;;
64075;SDS011;50327;51.328;12.324;2023-03-29T04:31:49;10.57;;;1.90;;
64075;SDS011;50327;51.328;12.324;2023-03-29T04:34:14;7.78;;;1.42;;
64075;SDS011;50327;51.328;12.324;2023-03-29T04:36:39;9.80;;;2.60;;
64075;SDS011;50327;51.328;12.324;2023-03-29T04:39:05;7.57;;;2.40;;
64075;SDS011;50327;51.328;12.324;2023-03-29T04:41:31;6.78;;;1.88;;
64075;SDS011;50327;51.328;12.324;2023-03-29T04:43:57;7.60;;;2.20;;
64075;SDS011;50327;51.328;12.324;2023-03-29T04:46:22;10.13;;;2.47;;
64075;SDS011;50327;51.328;12.324;2023-03-29T04:48:50;7.95;;;2.25;;
64075;SDS011;50327;51.328;12.324;2023-03-29T04:51:16;8.50;;;2.50;;
64075;SDS011;50327;51.328;12.324;2023-03-29T04:53:41;8.52;;;2.47;;
64075;SDS011;50327;51.328;12.324;2023-03-29T04:56:07;5.03;;;1.95;;
64075;SDS011;50327;51.328;12.324;2023-03-29T04:58:32;6.00;;;2.20;;
64075;SDS011;50327;51.328;12.324;2023-03-29T05:00:57;3.75;;;1.65;;
64075;SDS011;50327;51.328;12.324;2023-03-29T05:03:23;7.93;;;1.70;;
64075;SDS011;50327;51.328;12.324;2023-03-29T05:05:48;6.43;;;2.47;;
64075;SDS011;50327;51.328;12.324;2023-03-29T05:08:14;7.65;;;2.15;;
64075;SDS011;50327;51.328;12.324;2023-03-29T05:10:42;7.07;;;2.35;;
64075;SDS011;50327;51.328;12.324;2023-03-29T05:13:08;5.75;;;2.50;;
64075;SDS011;50327;51.328;12.324;2023-03-29T05:15:33;6.40;;;1.77;;
64075;SDS011;50327;51.328;12.324;2023-03-29T05:17:58;4.72;;;2.13;;
64075;SDS011;50327;51.328;12.324;2023-03-29T05:20:24;5.50;;;1.80;;
64075;SDS011;50327;51.328;12.324;2023-03-29T05:22:50;13.30;;;3.13;;
64075;SDS011;50327;51.328;12.324;2023-03-29T05:25:15;13.38;;;3.40;;
64075;SDS011;50327;51.328;12.324;2023-03-29T05:27:42;11.65;;;3.33;;
64075;SDS011;50327;51.328;12.324;2023-03-29T05:30:09;11.88;;;6.07;;
64075;SDS011;50327;51.328;12.324;2023-03-29T05:32:35;10.40;;;2.55;;
64075;SDS011;50327;51.328;12.324;2023-03-29T05:35:02;15.13;;;3.33;;
64075;SDS011;50327;51.328;12.324;2023-03-29T05:37:27;17.48;;;2.78;;
64075;SDS011;50327;51.328;12.324;2023-03-29T05:39:52;9.15;;;2.70;;
64075;SDS011;50327;51.328;12.324;2023-03-29T05:42:18;8.32;;;2.97;;
64075;SDS011;50327;51.328;12.324;2023-03-29T05:44:46;4.57;;;2.10;;
64075;SDS011;50327;51.328;12.324;2023-03-29T05:47:11;8.20;;;2.63;;
64075;SDS011;50327;51.328;12.324;2023-03-29T05:49:37;16.52;;;5.68;;
64075;SDS011;50327;51.328;12.324;2023-03-29T05:52:02;9.60;;;2.97;;
64075;SDS011;50327;51.328;12.324;2023-03-29T05:54:27;6.57;;;3.03;;
64075;SDS011;50327;51.328;12.324;2023-03-29T05:56:53;9.00;;;3.03;;
64075;SDS011;50327;51.328;12.324;2023-03-29T05:59:18;11.38;;;2.92;;
64075;SDS011;50327;51.328;12.324;2023-03-29T06:01:44;9.35;;;4.43;;
64075;SDS011;50327;51.328;12.324;2023-03-29T06:04:12;7.40;;;3.37;;
64075;SDS011;50327;51.328;12.324;2023-03-29T06:06:38;12.55;;;4.47;;
64075;SDS011;50327;51.328;12.324;2023-03-29T06:09:03;6.85;;;2.88;;
64075;SDS011;50327;51.328;12.324;2023-03-29T06:11:29;12.43;;;3.33;;
64075;SDS011;50327;51.328;12.324;2023-03-29T06:13:55;8.23;;;3.55;;
64075;SDS011;50327;51.328;12.324;2023-03-29T06:16:21;11.93;;;3.55;;
64075;SDS011;50327;51.328;12.324;2023-03-29T06:18:46;13.38;;;2.78;;
64075;SDS011;50327;51.328;12.324;2023-03-29T06:21:12;8.95;;;3.72;;
64075;SDS011;50327;51.328;12.324;2023-03-29T06:23:37;10.32;;;3.42;;
64075;SDS011;50327;51.328;12.324;2023-03-29T06:26:02;11.43;;;4.07;;
64075;SDS011;50327;51.328;12.324;2023-03-29T06:28:27;7.47;;;3.45;;
64075;SDS011;50327;51.328;12.324;2023-03-29T06:30:52;14.82;;;4.70;;
64075;SDS011;50327;51.328;12.324;2023-03-29T06:33:20;12.82;;;4.38;;
64075;SDS011;50327;51.328;12.324;2023-03-29T06:35:46;8.88;;;3.40;;
64075;SDS011;50327;51.328;12.324;2023-03-29T06:38:11;7.13;;;3.03;;
64075;SDS011;50327;51.328;12.324;2023-03-29T06:40:37;8.30;;;3.13;;
64075;SDS011;50327;51.328;12.324;2023-03-29T06:43:03;8.18;;;3.08;;
64075;SDS011;50327;51.328;12.324;2023-03-29T06:45:30;6.22;;;3.42;;
64075;SDS011;50327;51.328;12.324;2023-03-29T06:47:56;16.92;;;3.88;;
64075;SDS011;50327;51.328;12.324;2023-03-29T06:50:21;9.63;;;3.50;;
64075;SDS011;50327;51.328;12.324;2023-03-29T06:52:47;13.95;;;4.25;;
64075;SDS011;50327;51.328;12.324;2023-03-29T06:55:12;10.70;;;3.78;;
64075;SDS011;50327;51.328;12.324;2023-03-29T06:57:38;10.25;;;4.03;;
64075;SDS011;50327;51.328;12.324;2023-03-29T07:00:04;10.00;;;4.07;;
64075;SDS011;50327;51.328;12.324;2023-03-29T07:02:46;12.52;;;4.30;;
64075;SDS011;50327;51.328;12.324;2023-03-29T07:05:13;11.20;;;3.97;;
64075;SDS011;50327;51.328;12.324;2023-03-29T07:07:40;7.53;;;3.63;;
64075;SDS011;50327;51.328;12.324;2023-03-29T07:10:22;16.95;;;4.22;;
64075;SDS011;50327;51.328;12.324;2023-03-29T07:12:49;17.83;;;4.65;;
64075;SDS011;50327;51.328;12.324;2023-03-29T07:15:15;10.57;;;4.22;;
64075;SDS011;50327;51.328;12.324;2023-03-29T07:17:40;8.45;;;3.97;;
64075;SDS011;50327;51.328;12.324;2023-03-29T07:20:06;9.10;;;3.88;;
64075;SDS011;50327;51.328;12.324;2023-03-29T07:22:36;11.25;;;4.60;;
64075;SDS011;50327;51.328;12.324;2023-03-29T07:25:02;13.38;;;4.72;;
64075;SDS011;50327;51.328;12.324;2023-03-29T07:27:27;7.20;;;3.97;;
64075;SDS011;50327;51.328;12.324;2023-03-29T07:29:53;11.88;;;4.85;;
64075;SDS011;50327;51.328;12.324;2023-03-29T07:32:29;10.40;;;4.65;;
64075;SDS011;50327;51.328;12.324;2023-03-29T07:34:54;11.35;;;4.20;;
64075;SDS011;50327;51.328;12.324;2023-03-29T07:37:19;8.27;;;4.20;;
64075;SDS011;50327;51.328;12.324;2023-03-29T07:39:45;11.77;;;4.70;;
64075;SDS011;50327;51.328;12.324;2023-03-29T07:42:10;16.77;;;4.82;;
64075;SDS011;50327;51.328;12.324;2023-03-29T07:44:36;17.73;;;4.20;;
64075;SDS011;50327;51.328;12.324;2023-03-29T07:47:01;10.45;;;4.80;;
64075;SDS011;50327;51.328;12.324;2023-03-29T07:49:28;9.38;;;4.50;;
64075;SDS011;50327;51.328;12.324;2023-03-29T07:51:53;9.18;;;3.90;;
64075;SDS011;50327;51.328;12.324;2023-03-29T07:54:19;9.18;;;4.43;;
64075;SDS011;50327;51.328;12.324;2023-03-29T07:56:44;9.25;;;4.82;;
64075;SDS011;50327;51.328;12.324;2023-03-29T07:59:09;10.27;;;4.80;;
64075;SDS011;50327;51.328;12.324;2023-03-29T08:01:34;9.75;;;4.15;;
64075;SDS011;50327;51.328;12.324;2023-03-29T08:03:59;7.40;;;4.40;;
64075;SDS011;50327;51.328;12.324;2023-03-29T08:06:25;9.50;;;4.75;;
64075;SDS011;50327;51.328;12.324;2023-03-29T08:08:51;10.25;;;4.30;;
64075;SDS011;50327;51.328;12.324;2023-03-29T08:11:16;11.65;;;4.70;;
64075;SDS011;50327;51.328;12.324;2023-03-29T08:13:42;15.85;;;4.80;;
64075;SDS011;50327;51.328;12.324;2023-03-29T08:16:07;9.38;;;4.63;;
64075;SDS011;50327;51.328;12.324;2023-03-29T08:18:33;9.40;;;4.20;;
64075;SDS011;50327;51.328;12.324;2023-03-29T08:20:58;16.23;;;4.80;;
64075;SDS011;50327;51.328;12.324;2023-03-29T08:23:24;9.00;;;4.35;;
64075;SDS011;50327;51.328;12.324;2023-03-29T08:25:49;11.80;;;4.10;;
64075;SDS011;50327;51.328;12.324;2023-03-29T08:28:14;12.98;;;4.32;;
64075;SDS011;50327;51.328;12.324;2023-03-29T08:30:40;12.82;;;5.18;;
64075;SDS011;50327;51.328;12.324;2023-03-29T08:33:05;13.00;;;4.53;;
64075;SDS011;50327;51.328;12.324;2023-03-29T08:35:31;12.13;;;4.32;;
64075;SDS011;50327;51.328;12.324;2023-03-29T08:37:56;7.05;;;3.75;;
64075;SDS011;50327;51.328;12.324;2023-03-29T08:40:23;12.05;;;4.10;;
64075;SDS011;50327;51.328;12.324;2023-03-29T08:45:27;20.92;;;4.93;;
64075;SDS011;50327;51.328;12.324;2023-03-29T08:48:00;10.15;;;4.22;;
64075;SDS011;50327;51.328;12.324;2023-03-29T08:50:35;13.80;;;4.30;;
64075;SDS011;50327;51.328;12.324;2023-03-29T08:53:06;10.10;;;4.10;;
64075;SDS011;50327;51.328;12.324;2023-03-29T08:55:37;8.98;;;3.67;;
64075;SDS011;50327;51.328;12.324;2023-03-29T08:58:04;9.18;;;4.25;;
64075;SDS011;50327;51.328;12.324;2023-03-29T09:02:56;12.98;;;3.97;;
64075;SDS011;50327;51.328;12.324;2023-03-29T09:05:32;9.68;;;3.88;;
64075;SDS011;50327;51.328;12.324;2023-03-29T09:07:59;11.95;;;4.70;;
64075;SDS011;50327;51.328;12.324;2023-03-29T09:10:29;18.40;;;4.90;;
64075;SDS011;50327;51.328;12.324;2023-03-29T09:15:33;12.20;;;4.28;;
64075;SDS011;50327;51.328;12.324;2023-03-29T09:23:35;8.30;;;4.30;;
64075;SDS011;50327;51.328;12.324;2023-03-29T09:31:12;13.98;;;4.88;;
64075;SDS011;50327;51.328;12.324;2023-03-29T09:36:11;8.38;;;4.22;;
64075;SDS011;50327;51.328;12.324;2023-03-29T09:38:41;9.63;;;3.97;;
64075;SDS011;50327;51.328;12.324;2023-03-29T09:41:18;9.77;;;4.30;;
64075;SDS011;50327;51.328;12.324;2023-03-29T09:43:45;6.53;;;3.45;;
64075;SDS011;50327;51.328;12.324;2023-03-29T09:46:16;9.93;;;4.25;;
64075;SDS011;50327;51.328;12.324;2023-03-29T09:48:44;11.38;;;4.20;;
64075;SDS011;50327;51.328;12.324;2023-03-29T09:51:10;8.98;;;3.95;;
64075;SDS011;50327;51.328;12.324;2023-03-29T09:53:36;8.52;;;4.50;;
64075;SDS011;50327;51.328;12.324;2023-03-29T09:56:01;9.77;;;4.55;;
64075;SDS011;50327;51.328;12.324;2023-03-29T09:58:28;9.57;;;4.18;;
64075;SDS011;50327;51.328;12.324;2023-03-29T10:01:03;7.43;;;3.72;;
64075;SDS011;50327;51.328;12.324;2023-03-29T10:03:30;11.52;;;3.65;;
64075;SDS011;50327;51.328;12.324;2023-03-29T10:05:57;8.20;;;4.20;;
64075;SDS011;50327;51.328;12.324;2023-03-29T10:08:30;9.75;;;4.07;;
64075;SDS011;50327;51.328;12.324;2023-03-29T10:11:00;9.23;;;4.07;;
64075;SDS011;50327;51.328;12.324;2023-03-29T10:13:30;8.88;;;3.70;;
64075;SDS011;50327;51.328;12.324;2023-03-29T10:18:22;7.13;;;3.65;;
64075;SDS011;50327;51.328;12.324;2023-03-29T10:20:48;7.93;;;4.30;;
64075;SDS011;50327;51.328;12.324;2023-03-29T10:23:16;11.05;;;4.05;;
64075;SDS011;50327;51.328;12.324;2023-03-29T10:25:42;6.90;;;3.55;;
64075;SDS011;50327;51.328;12.324;2023-03-29T10:28:12;10.63;;;3.15;;
64075;SDS011;50327;51.328;12.324;2023-03-29T10:30:40;6.70;;;3.70;;
64075;SDS011;50327;51.328;12.324;2023-03-29T10:33:12;9.50;;;3.78;;
64075;SDS011;50327;51.328;12.324;2023-03-29T10:35:39;8.63;;;4.20;;
64075;SDS011;50327;51.328;12.324;2023-03-29T10:38:08;6.95;;;3.03;;
64075;SDS011;50327;51.328;12.324;2023-03-29T10:40:40;10.13;;;3.50;;
64075;SDS011;50327;51.328;12.324;2023-03-29T10:43:11;6.65;;;3.72;;
64075;SDS011;50327;51.328;12.324;2023-03-29T10:45:38;7.13;;;3.47;;
64075;SDS011;50327;51.328;12.324;2023-03-29T10:48:03;14.75;;;4.78;;
64075;SDS011;50327;51.328;12.324;2023-03-29T10:50:31;7.07;;;3.60;;
64075;SDS011;50327;51.328;12.324;2023-03-29T10:53:01;6.75;;;3.38;;
64075;SDS011;50327;51.328;12.324;2023-03-29T10:55:35;6.13;;;3.28;;
64075;SDS011;50327;51.328;12.324;2023-03-29T10:58:19;7.85;;;3.70;;
64075;SDS011;50327;51.328;12.324;2023-03-29T11:00:56;7.25;;;3.75;;
64075;SDS011;50327;51.328;12.324;2023-03-29T11:03:25;7.53;;;3.65;;
64075;SDS011;50327;51.328;12.324;2023-03-29T11:06:17;7.65;;;3.70;;
64075;SDS011;50327;51.328;12.324;2023-03-29T11:11:23;5.82;;;3.10;;
64075;SDS011;50327;51.328;12.324;2023-03-29T11:16:24;12.18;;;3.38;;
64075;SDS011;50327;51.328;12.324;2023-03-29T11:28:43;7.63;;;3.33;;
64075;SDS011;50327;51.328;12.324;2023-03-29T11:46:10;8.80;;;3.30;;
64075;SDS011;50327;51.328;12.324;2023-03-29T11:48:38;7.00;;;3.42;;
64075;SDS011;50327;51.328;12.324;2023-03-29T11:53:34;5.20;;;3.10;;
64075;SDS011;50327;51.328;12.324;2023-03-29T11:56:07;12.60;;;3.75;;
64075;SDS011;50327;51.328;12.324;2023-03-29T11:58:35;19.42;;;3.40;;
64075;SDS011;50327;51.328;12.324;2023-03-29T12:01:05;6.30;;;2.85;;
64075;SDS011;50327;51.328;12.324;2023-03-29T12:06:03;7.95;;;3.42;;
64075;SDS011;50327;51.328;12.324;2023-03-29T12:08:41;7.88;;;3.17;;
64075;SDS011;50327;51.328;12.324;2023-03-29T12:13:38;5.88;;;3.10;;
64075;SDS011;50327;51.328;12.324;2023-03-29T12:18:32;7.67;;;3.17;;
64075;SDS011;50327;51.328;12.324;2023-03-29T12:21:01;5.45;;;3.25;;
64075;SDS011;50327;51.328;12.324;2023-03-29T12:23:28;10.45;;;3.85;;
64075;SDS011;50327;51.328;12.324;2023-03-29T12:31:03;7.38;;;2.90;;
64075;SDS011;50327;51.328;12.324;2023-03-29T12:38:35;8.13;;;3.13;;
64075;SDS011;50327;51.328;12.324;2023-03-29T12:41:02;4.82;;;2.75;;
64075;SDS011;50327;51.328;12.324;2023-03-29T12:43:37;10.60;;;3.03;;
64075;SDS011;50327;51.328;12.324;2023-03-29T12:46:07;6.07;;;2.75;;
64075;SDS011;50327;51.328;12.324;2023-03-29T12:48:35;6.85;;;2.90;;
64075;SDS011;50327;51.328;12.324;2023-03-29T12:51:12;5.93;;;2.40;;
64075;SDS011;50327;51.328;12.324;2023-03-29T12:53:39;7.68;;;3.03;;
64075;SDS011;50327;51.328;12.324;2023-03-29T12:56:07;7.68;;;3.25;;
64075;SDS011;50327;51.328;12.324;2023-03-29T13:01:05;7.68;;;3.13;;
64075;SDS011;50327;51.328;12.324;2023-03-29T13:06:02;7.78;;;2.67;;
64075;SDS011;50327;51.328;12.324;2023-03-29T13:10:57;8.85;;;2.97;;
64075;SDS011;50327;51.328;12.324;2023-03-29T13:13:24;6.90;;;2.13;;
64075;SDS011;50327;51.328;12.324;2023-03-29T13:15:50;6.78;;;2.95;;
64075;SDS011;50327;51.328;12.324;2023-03-29T13:18:27;8.60;;;2.30;;
64075;SDS011;50327;51.328;12.324;2023-03-29T13:21:31;7.50;;;3.03;;
64075;SDS011;50327;51.328;12.324;2023-03-29T13:39:04;5.55;;;2.65;;
64075;SDS011;50327;51.328;12.324;2023-03-29T13:41:52;9.65;;;3.17;;
64075;SDS011;50327;51.328;12.324;2023-03-29T13:46:59;6.93;;;2.30;;
64075;SDS011;50327;51.328;12.324;2023-03-29T13:49:26;12.63;;;2.70;;
64075;SDS011;50327;51.328;12.324;2023-03-29T13:54:22;7.10;;;2.50;;
64075;SDS011;50327;51.328;12.324;2023-03-29T13:56:53;7.18;;;2.85;;
64075;SDS011;50327;51.328;12.324;2023-03-29T13:59:28;5.90;;;2.83;;
64075;SDS011;50327;51.328;12.324;2023-03-29T14:01:56;7.55;;;2.80;;
64075;SDS011;50327;51.328;12.324;2023-03-29T14:04:25;12.02;;;2.97;;
64075;SDS011;50327;51.328;12.324;2023-03-29T14:06:52;6.43;;;2.10;;
64075;SDS011;50327;51.328;12.324;2023-03-29T14:09:18;7.72;;;2.72;;
64075;SDS011;50327;51.328;12.324;2023-03-29T14:11:45;6.95;;;2.25;;
64075;SDS011;50327;51.328;12.324;2023-03-29T14:14:11;7.80;;;2.28;;
64075;SDS011;50327;51.328;12.324;2023-03-29T14:16:37;6.47;;;2.20;;
64075;SDS011;50327;51.328;12.324;2023-03-29T14:19:04;5.85;;;2.20;;
64075;SDS011;50327;51.328;12.324;2023-03-29T14:21:30;6.65;;;2.83;;
64075;SDS011;50327;51.328;12.324;2023-03-29T14:23:59;7.40;;;2.40;;
64075;SDS011;50327;51.328;12.324;2023-03-29T14:26:28;4.97;;;2.40;;
64075;SDS011;50327;51.328;12.324;2023-03-29T14:28:55;4.82;;;2.38;;
64075;SDS011;50327;51.328;12.324;2023-03-29T14:33:50;4.63;;;2.43;;
64075;SDS011;50327;51.328;12.324;2023-03-29T14:36:15;6.63;;;2.72;;
64075;SDS011;50327;51.328;12.324;2023-03-29T14:38:42;9.27;;;2.88;;
64075;SDS011;50327;51.328;12.324;2023-03-29T14:41:09;13.57;;;3.00;;
64075;SDS011;50327;51.328;12.324;2023-03-29T14:43:34;9.27;;;2.63;;
64075;SDS011;50327;51.328;12.324;2023-03-29T14:46:01;9.80;;;2.40;;
64075;SDS011;50327;51.328;12.324;2023-03-29T14:48:28;8.85;;;2.95;;
64075;SDS011;50327;51.328;12.324;2023-03-29T14:50:57;5.70;;;2.13;;
64075;SDS011;50327;51.328;12.324;2023-03-29T14:53:22;8.13;;;2.20;;
64075;SDS011;50327;51.328;12.324;2023-03-29T14:55:48;5.50;;;2.00;;
64075;SDS011;50327;51.328;12.324;2023-03-29T14:58:18;5.00;;;2.40;;
64075;SDS011;50327;51.328;12.324;2023-03-29T15:03:13;5.70;;;2.20;;
64075;SDS011;50327;51.328;12.324;2023-03-29T15:05:42;5.78;;;2.55;;
64075;SDS011;50327;51.328;12.324;2023-03-29T15:08:12;5.75;;;2.50;;
64075;SDS011;50327;51.328;12.324;2023-03-29T15:10:38;9.80;;;2.60;;
64075;SDS011;50327;51.328;12.324;2023-03-29T15:13:05;5.32;;;2.20;;
64075;SDS011;50327;51.328;12.324;2023-03-29T15:15:32;5.20;;;2.25;;
64075;SDS011;50327;51.328;12.324;2023-03-29T15:17:58;6.00;;;2.35;;
64075;SDS011;50327;51.328;12.324;2023-03-29T15:23:00;4.95;;;2.40;;
64075;SDS011;50327;51.328;12.324;2023-03-29T15:25:26;7.53;;;2.60;;
64075;SDS011;50327;51.328;12.324;2023-03-29T15:27:55;6.57;;;2.50;;
64075;SDS011;50327;51.328;12.324;2023-03-29T15:30:29;4.65;;;2.20;;
64075;SDS011;50327;51.328;12.324;2023-03-29T15:32:55;8.23;;;2.83;;
64075;SDS011;50327;51.328;12.324;2023-03-29T15:35:22;11.95;;;2.22;;
64075;SDS011;50327;51.328;12.324;2023-03-29T15:37:47;7.47;;;2.60;;
64075;SDS011;50327;51.328;12.324;2023-03-29T15:40:16;3.70;;;2.03;;
64075;SDS011;50327;51.328;12.324;2023-03-29T15:42:43;4.70;;;2.60;;
64075;SDS011;50327;51.328;12.324;2023-03-29T15:45:13;4.28;;;2.00;;
64075;SDS011;50327;51.328;12.324;2023-03-29T15:47:38;4.40;;;2.03;;
64075;SDS011;50327;51.328;12.324;2023-03-29T15:50:03;3.75;;;1.80;;
64075;SDS011;50327;51.328;12.324;2023-03-29T15:52:29;4.93;;;1.70;;
64075;SDS011;50327;51.328;12.324;2023-03-29T15:54:54;3.35;;;1.73;;
64075;SDS011;50327;51.328;12.324;2023-03-29T15:57:19;3.22;;;1.98;;
64075;SDS011;50327;51.328;12.324;2023-03-29T15:59:45;5.47;;;2.30;;
64075;SDS011;50327;51.328;12.324;2023-03-29T16:02:12;4.32;;;1.60;;
64075;SDS011;50327;51.328;12.324;2023-03-29T16:04:37;4.60;;;2.10;;
64075;SDS011;50327;51.328;12.324;2023-03-29T16:07:05;9.63;;;2.10;;
64075;SDS011;50327;51.328;12.324;2023-03-29T16:09:31;4.35;;;1.80;;
64075;SDS011;50327;51.328;12.324;2023-03-29T16:11:56;7.25;;;2.90;;
64075;SDS011;50327;51.328;12.324;2023-03-29T16:14:25;4.85;;;2.45;;
64075;SDS011;50327;51.328;12.324;2023-03-29T16:16:51;6.07;;;2.45;;
64075;SDS011;50327;51.328;12.324;2023-03-29T16:19:16;4.00;;;2.15;;
64075;SDS011;50327;51.328;12.324;2023-03-29T16:21:42;6.55;;;2.33;;
64075;SDS011;50327;51.328;12.324;2023-03-29T16:24:14;5.90;;;2.35;;
64075;SDS011;50327;51.328;12.324;2023-03-29T16:26:40;6.65;;;2.40;;
64075;SDS011;50327;51.328;12.324;2023-03-29T16:29:05;4.10;;;2.47;;
64075;SDS011;50327;51.328;12.324;2023-03-29T16:31:31;6.57;;;2.13;;
64075;SDS011;50327;51.328;12.324;2023-03-29T16:33:56;5.07;;;2.40;;
64075;SDS011;50327;51.328;12.324;2023-03-29T16:36:21;6.00;;;2.60;;
64075;SDS011;50327;51.328;12.324;2023-03-29T16:38:46;8.30;;;2.80;;